createdAt,value
2019-03-31T00:00:20.550Z,7.72
2019-03-31T00:01:19.798Z,7.72
2019-03-31T00:02:19.795Z,7.72
2019-03-31T00:03:19.780Z,7.71
2019-03-31T00:04:19.780Z,7.72
2019-03-31T00:05:19.780Z,7.67
2019-03-31T00:06:19.830Z,7.72
2019-03-31T00:07:19.742Z,7.72
2019-03-31T00:08:19.746Z,7.67
2019-03-31T00:09:19.733Z,7.66
2019-03-31T00:10:19.729Z,7.66
2019-03-31T00:11:19.698Z,7.63
2019-03-31T00:12:19.683Z,7.52
2019-03-31T00:13:19.678Z,7.56
2019-03-31T00:14:19.667Z,7.35
2019-03-31T00:15:19.685Z,7.23
2019-03-31T00:16:19.638Z,7.22
2019-03-31T00:17:19.633Z,7.20
2019-03-31T00:18:19.624Z,7.17
2019-03-31T00:19:19.611Z,7.08
2019-03-31T00:20:19.621Z,7.16
2019-03-31T00:21:19.589Z,7.12
2019-03-31T00:22:19.629Z,7.15
2019-03-31T00:23:19.566Z,7.16
2019-03-31T00:24:20.583Z,7.16
2019-03-31T00:25:19.575Z,7.24
2019-03-31T00:26:19.539Z,7.20
2019-03-31T00:27:19.525Z,7.17
2019-03-31T00:28:19.513Z,7.13
2019-03-31T00:29:19.502Z,7.24
2019-03-31T00:30:19.491Z,7.27
2019-03-31T00:31:22.233Z,7.24
2019-03-31T00:32:19.471Z,7.17
2019-03-31T00:33:19.464Z,7.20
2019-03-31T00:34:19.457Z,7.20
2019-03-31T00:35:19.439Z,7.26
2019-03-31T00:36:19.462Z,7.20
2019-03-31T00:37:19.419Z,7.29
2019-03-31T00:38:19.405Z,7.19
2019-03-31T00:39:19.407Z,7.31
2019-03-31T00:40:19.387Z,7.27
2019-03-31T00:41:19.393Z,7.22
2019-03-31T00:42:19.364Z,7.20
2019-03-31T00:43:19.357Z,7.22
2019-03-31T00:44:19.344Z,7.26
2019-03-31T00:45:19.333Z,7.20
2019-03-31T00:46:19.363Z,7.22
2019-03-31T00:47:19.313Z,7.29
2019-03-31T00:48:19.307Z,7.22
2019-03-31T00:49:19.292Z,7.22
2019-03-31T00:50:19.281Z,7.27
2019-03-31T00:51:19.270Z,7.19
2019-03-31T00:52:19.277Z,7.19
2019-03-31T00:53:19.248Z,7.19
2019-03-31T00:54:19.238Z,7.29
2019-03-31T00:55:19.229Z,7.35
2019-03-31T00:56:19.216Z,7.26
2019-03-31T00:57:19.237Z,7.27
2019-03-31T00:58:19.202Z,7.20
2019-03-31T00:59:19.188Z,7.22
2019-03-31T01:00:19.174Z,7.20
2019-03-31T01:01:19.164Z,7.29
2019-03-31T01:02:19.173Z,7.24
2019-03-31T01:03:19.144Z,7.23
2019-03-31T01:04:19.134Z,7.26
2019-03-31T01:05:19.122Z,7.20
2019-03-31T01:06:19.114Z,7.20
2019-03-31T01:07:19.127Z,7.24
2019-03-31T01:08:19.090Z,7.15
2019-03-31T01:09:19.080Z,7.09
2019-03-31T01:10:19.072Z,7.08
2019-03-31T01:11:19.058Z,6.99
2019-03-31T01:12:19.077Z,7.01
2019-03-31T01:13:19.049Z,6.90
2019-03-31T01:14:19.027Z,7.01
2019-03-31T01:15:19.016Z,6.98
2019-03-31T01:16:19.007Z,6.90
2019-03-31T01:17:19.264Z,6.87
2019-03-31T01:18:18.996Z,6.86
2019-03-31T01:19:18.976Z,6.83
2019-03-31T01:20:18.964Z,6.83
2019-03-31T01:21:18.953Z,6.76
2019-03-31T01:22:18.943Z,6.73
2019-03-31T01:23:18.951Z,6.76
2019-03-31T01:24:18.926Z,6.80
2019-03-31T01:25:18.911Z,6.77
2019-03-31T01:26:18.900Z,6.72
2019-03-31T01:27:18.914Z,6.73
2019-03-31T01:28:18.879Z,6.76
2019-03-31T01:29:18.870Z,6.73
2019-03-31T01:30:18.859Z,6.59
2019-03-31T01:31:18.846Z,6.61
2019-03-31T01:32:18.856Z,6.72
2019-03-31T01:33:18.827Z,6.77
2019-03-31T01:34:18.816Z,6.61
2019-03-31T01:35:18.806Z,6.56
2019-03-31T01:36:18.802Z,6.69
2019-03-31T01:37:20.333Z,6.71
2019-03-31T01:38:18.774Z,6.66
2019-03-31T01:39:18.764Z,6.65
2019-03-31T01:40:18.752Z,6.58
2019-03-31T01:41:18.743Z,6.61
2019-03-31T01:42:18.753Z,6.58
2019-03-31T01:43:18.722Z,6.61
2019-03-31T01:44:18.711Z,6.58
2019-03-31T01:45:18.711Z,6.54
2019-03-31T01:46:18.690Z,6.61
2019-03-31T01:47:18.698Z,6.58
2019-03-31T01:48:18.678Z,6.53
2019-03-31T01:49:18.656Z,6.62
2019-03-31T01:50:18.652Z,6.54
2019-03-31T01:51:18.637Z,6.51
2019-03-31T01:52:18.644Z,6.50
2019-03-31T01:53:18.616Z,6.47
2019-03-31T01:54:18.607Z,6.50
2019-03-31T01:55:18.604Z,6.43
2019-03-31T01:56:18.584Z,6.47
2019-03-31T01:57:18.605Z,6.48
2019-03-31T01:58:18.564Z,6.43
2019-03-31T01:59:18.565Z,6.36
2019-03-31T02:00:18.551Z,6.44
2019-03-31T02:01:18.535Z,6.40
2019-03-31T02:02:18.521Z,6.40
2019-03-31T02:03:18.532Z,6.38
2019-03-31T02:04:18.501Z,6.32
2019-03-31T02:05:18.492Z,6.41
2019-03-31T02:06:18.479Z,6.29
2019-03-31T02:07:18.469Z,6.28
2019-03-31T02:08:18.477Z,6.22
2019-03-31T02:09:18.460Z,6.25
2019-03-31T02:10:18.458Z,6.22
2019-03-31T02:11:18.428Z,6.25
2019-03-31T02:12:18.426Z,6.22
2019-03-31T02:13:18.428Z,6.19
2019-03-31T02:14:18.393Z,6.21
2019-03-31T02:15:18.404Z,6.25
2019-03-31T02:16:18.380Z,6.19
2019-03-31T02:17:18.371Z,6.22
2019-03-31T02:18:18.375Z,6.14
2019-03-31T02:19:18.342Z,6.14
2019-03-31T02:20:18.340Z,6.18
2019-03-31T02:21:18.340Z,6.21
2019-03-31T02:22:18.313Z,6.19
2019-03-31T02:23:18.320Z,6.14
2019-03-31T02:24:18.297Z,6.19
2019-03-31T02:25:18.282Z,6.14
2019-03-31T02:26:18.270Z,6.14
2019-03-31T02:27:18.262Z,6.21
2019-03-31T02:28:18.267Z,6.18
2019-03-31T02:29:18.242Z,6.18
2019-03-31T02:30:18.233Z,6.11
2019-03-31T02:31:18.225Z,6.22
2019-03-31T02:32:24.310Z,6.14
2019-03-31T02:33:19.223Z,6.25
2019-03-31T02:34:18.188Z,6.19
2019-03-31T02:35:18.173Z,6.21
2019-03-31T02:36:18.186Z,6.11
2019-03-31T02:37:18.152Z,6.07
2019-03-31T02:38:18.165Z,6.11
2019-03-31T02:39:18.151Z,6.04
2019-03-31T02:40:18.124Z,6.14
2019-03-31T02:41:18.111Z,6.10
2019-03-31T02:42:18.100Z,6.11
2019-03-31T02:43:18.107Z,6.04
2019-03-31T02:44:18.081Z,6.03
2019-03-31T02:45:18.072Z,6.01
2019-03-31T02:46:18.060Z,6.04
2019-03-31T02:47:18.051Z,6.01
2019-03-31T02:48:18.059Z,6.01
2019-03-31T02:49:18.030Z,5.96
2019-03-31T02:50:18.016Z,5.95
2019-03-31T02:51:18.006Z,5.96
2019-03-31T02:52:17.997Z,5.91
2019-03-31T02:53:18.004Z,5.92
2019-03-31T02:54:17.981Z,5.92
2019-03-31T02:55:17.970Z,5.91
2019-03-31T02:56:17.976Z,5.92
2019-03-31T02:57:17.990Z,5.92
2019-03-31T02:58:17.966Z,5.92
2019-03-31T02:59:17.939Z,6.00
2019-03-31T03:00:17.913Z,5.92
2019-03-31T03:01:17.902Z,5.95
2019-03-31T03:02:17.910Z,5.92
2019-03-31T03:03:17.907Z,5.95
2019-03-31T03:04:17.875Z,5.98
2019-03-31T03:05:20.234Z,5.91
2019-03-31T03:06:17.851Z,5.92
2019-03-31T03:07:17.840Z,5.96
2019-03-31T03:08:17.835Z,5.93
2019-03-31T03:09:17.848Z,5.92
2019-03-31T03:10:17.809Z,5.96
2019-03-31T03:11:17.807Z,5.95
2019-03-31T03:12:17.789Z,5.86
2019-03-31T03:13:17.779Z,5.85
2019-03-31T03:14:17.788Z,5.86
2019-03-31T03:15:17.758Z,5.81
2019-03-31T03:16:17.758Z,5.81
2019-03-31T03:17:17.739Z,5.93
2019-03-31T03:18:17.729Z,5.85
2019-03-31T03:19:17.759Z,5.83
2019-03-31T03:20:17.705Z,5.82
2019-03-31T03:21:17.714Z,5.73
2019-03-31T03:22:17.692Z,5.75
2019-03-31T03:23:17.678Z,5.78
2019-03-31T03:24:17.711Z,5.71
2019-03-31T03:25:17.653Z,5.75
2019-03-31T03:26:17.651Z,5.68
2019-03-31T03:27:17.630Z,5.57
2019-03-31T03:28:17.617Z,5.67
2019-03-31T03:29:17.610Z,5.64
2019-03-31T03:30:17.810Z,5.68
2019-03-31T03:31:17.772Z,5.66
2019-03-31T03:32:17.617Z,5.64
2019-03-31T03:33:18.513Z,5.63
2019-03-31T03:34:17.559Z,5.67
2019-03-31T03:35:17.568Z,5.63
2019-03-31T03:36:17.576Z,5.56
2019-03-31T03:37:17.523Z,5.67
2019-03-31T03:38:17.543Z,5.52
2019-03-31T03:39:17.502Z,5.52
2019-03-31T03:40:17.517Z,5.52
2019-03-31T03:41:17.494Z,5.48
2019-03-31T03:42:17.483Z,5.35
2019-03-31T03:43:17.463Z,5.45
2019-03-31T03:44:17.452Z,5.34
2019-03-31T03:45:17.490Z,5.34
2019-03-31T03:46:17.431Z,5.40
2019-03-31T03:47:17.429Z,5.30
2019-03-31T03:48:17.414Z,5.32
2019-03-31T03:49:17.606Z,5.22
2019-03-31T03:50:17.414Z,5.14
2019-03-31T03:51:17.383Z,5.10
2019-03-31T03:52:17.368Z,5.13
2019-03-31T03:53:17.390Z,5.13
2019-03-31T03:54:17.353Z,5.10
2019-03-31T03:55:17.340Z,5.14
2019-03-31T03:56:17.350Z,5.13
2019-03-31T03:57:17.317Z,5.23
2019-03-31T03:58:17.309Z,5.16
2019-03-31T03:59:17.300Z,5.04
2019-03-31T04:00:17.285Z,5.05
2019-03-31T04:01:17.308Z,5.05
2019-03-31T04:02:17.279Z,4.99
2019-03-31T04:03:29.774Z,4.99
2019-03-31T04:04:18.240Z,5.02
2019-03-31T04:05:17.236Z,5.05
2019-03-31T04:06:17.243Z,5.10
2019-03-31T04:07:17.209Z,4.98
2019-03-31T04:08:17.204Z,4.99
2019-03-31T04:09:17.187Z,5.10
2019-03-31T04:10:17.186Z,5.12
2019-03-31T04:11:21.132Z,5.09
2019-03-31T04:12:17.163Z,4.99
2019-03-31T04:13:17.144Z,5.05
2019-03-31T04:14:17.144Z,5.05
2019-03-31T04:15:17.129Z,5.01
2019-03-31T04:16:17.136Z,5.01
2019-03-31T04:17:17.102Z,4.95
2019-03-31T04:18:17.092Z,5.12
2019-03-31T04:19:17.113Z,5.05
2019-03-31T04:20:17.071Z,5.02
2019-03-31T04:21:17.067Z,5.04
2019-03-31T04:22:17.069Z,5.09
2019-03-31T04:23:17.048Z,5.10
2019-03-31T04:24:17.028Z,5.01
2019-03-31T04:25:17.016Z,5.05
2019-03-31T04:26:17.068Z,5.04
2019-03-31T04:27:19.053Z,5.12
2019-03-31T04:28:16.989Z,5.07
2019-03-31T04:29:16.973Z,5.07
2019-03-31T04:30:16.966Z,5.07
2019-03-31T04:31:17.010Z,4.96
2019-03-31T04:32:16.965Z,4.96
2019-03-31T04:33:16.942Z,4.95
2019-03-31T04:34:17.143Z,4.99
2019-03-31T04:35:16.921Z,4.95
2019-03-31T04:36:16.902Z,4.92
2019-03-31T04:37:16.933Z,4.96
2019-03-31T04:38:16.889Z,4.94
2019-03-31T04:39:16.871Z,4.89
2019-03-31T04:40:16.860Z,4.83
2019-03-31T04:41:16.856Z,4.76
2019-03-31T04:42:16.839Z,4.73
2019-03-31T04:43:16.851Z,4.67
2019-03-31T04:44:16.818Z,4.70
2019-03-31T04:45:16.812Z,4.73
2019-03-31T04:46:16.799Z,4.75
2019-03-31T04:47:16.788Z,4.73
2019-03-31T04:48:16.805Z,4.79
2019-03-31T04:49:16.765Z,4.75
2019-03-31T04:50:16.755Z,4.75
2019-03-31T04:51:16.745Z,4.65
2019-03-31T04:52:16.772Z,4.69
2019-03-31T04:53:16.745Z,4.70
2019-03-31T04:54:16.713Z,4.69
2019-03-31T04:55:16.704Z,4.69
2019-03-31T04:56:16.691Z,4.61
2019-03-31T04:57:16.681Z,4.58
2019-03-31T04:58:16.696Z,4.61
2019-03-31T04:59:16.659Z,4.59
2019-03-31T05:00:16.649Z,4.62
2019-03-31T05:01:16.642Z,4.51
2019-03-31T05:02:16.628Z,4.52
2019-03-31T05:03:16.671Z,4.40
2019-03-31T05:04:16.611Z,4.39
2019-03-31T05:05:16.600Z,4.37
2019-03-31T05:06:16.588Z,4.51
2019-03-31T05:07:16.590Z,4.54
2019-03-31T05:08:16.570Z,4.52
2019-03-31T05:09:16.574Z,4.42
2019-03-31T05:10:16.552Z,4.39
2019-03-31T05:11:16.536Z,4.43
2019-03-31T05:12:16.934Z,4.51
2019-03-31T05:13:16.514Z,4.52
2019-03-31T05:14:16.541Z,4.47
2019-03-31T05:15:16.512Z,4.47
2019-03-31T05:16:16.495Z,4.50
2019-03-31T05:17:16.499Z,4.55
2019-03-31T05:18:16.465Z,4.44
2019-03-31T05:19:16.520Z,4.55
2019-03-31T05:20:16.445Z,4.50
2019-03-31T05:21:16.430Z,4.52
2019-03-31T05:22:16.427Z,4.50
2019-03-31T05:23:16.407Z,4.55
2019-03-31T05:24:16.426Z,4.50
2019-03-31T05:25:16.386Z,4.55
2019-03-31T05:26:16.379Z,4.47
2019-03-31T05:27:16.366Z,4.55
2019-03-31T05:28:16.356Z,4.54
2019-03-31T05:29:16.347Z,4.51
2019-03-31T05:30:16.354Z,4.50
2019-03-31T05:31:16.332Z,4.52
2019-03-31T05:32:16.315Z,4.57
2019-03-31T05:33:16.310Z,4.62
2019-03-31T05:34:19.229Z,4.58
2019-03-31T05:35:16.308Z,4.62
2019-03-31T05:36:16.272Z,4.65
2019-03-31T05:37:16.262Z,4.64
2019-03-31T05:38:16.250Z,4.62
2019-03-31T05:39:16.241Z,4.67
2019-03-31T05:40:16.256Z,4.67
2019-03-31T05:41:16.222Z,4.72
2019-03-31T05:42:16.216Z,4.67
2019-03-31T05:43:16.201Z,4.69
2019-03-31T05:44:16.188Z,4.69
2019-03-31T05:45:16.208Z,4.70
2019-03-31T05:46:16.171Z,4.70
2019-03-31T05:47:16.161Z,4.72
2019-03-31T05:48:16.153Z,4.65
2019-03-31T05:49:16.138Z,4.69
2019-03-31T05:50:16.125Z,4.69
2019-03-31T05:51:16.138Z,4.70
2019-03-31T05:52:16.104Z,4.73
2019-03-31T05:53:16.099Z,4.75
2019-03-31T05:54:16.095Z,4.73
2019-03-31T05:55:18.773Z,4.73
2019-03-31T05:56:16.131Z,4.76
2019-03-31T05:57:16.059Z,4.80
2019-03-31T05:58:16.044Z,4.86
2019-03-31T05:59:16.035Z,4.80
2019-03-31T06:00:16.029Z,4.86
2019-03-31T06:01:16.036Z,4.84
2019-03-31T06:02:16.001Z,4.86
2019-03-31T06:03:15.995Z,4.95
2019-03-31T06:04:15.984Z,4.99
2019-03-31T06:05:15.973Z,4.91
2019-03-31T06:06:15.989Z,4.92
2019-03-31T06:07:15.951Z,4.86
2019-03-31T06:08:15.941Z,4.99
2019-03-31T06:09:15.939Z,4.95
2019-03-31T06:10:15.918Z,5.02
2019-03-31T06:11:15.960Z,5.05
2019-03-31T06:12:15.900Z,5.04
2019-03-31T06:13:15.887Z,5.04
2019-03-31T06:14:15.880Z,5.04
2019-03-31T06:15:15.862Z,5.16
2019-03-31T06:16:15.893Z,5.13
2019-03-31T06:17:15.848Z,5.20
2019-03-31T06:18:15.838Z,5.14
2019-03-31T06:19:15.828Z,5.27
2019-03-31T06:20:15.809Z,5.28
2019-03-31T06:21:15.804Z,5.30
2019-03-31T06:22:15.858Z,5.34
2019-03-31T06:23:15.794Z,5.40
2019-03-31T06:24:15.767Z,5.48
2019-03-31T06:25:15.769Z,5.45
2019-03-31T06:26:15.753Z,5.55
2019-03-31T06:27:16.008Z,5.56
2019-03-31T06:28:15.729Z,5.59
2019-03-31T06:29:15.719Z,5.60
2019-03-31T06:30:15.732Z,5.57
2019-03-31T06:31:15.696Z,5.64
2019-03-31T06:32:15.703Z,5.71
2019-03-31T06:33:15.676Z,5.75
2019-03-31T06:34:15.664Z,5.81
2019-03-31T06:35:15.656Z,5.77
2019-03-31T06:36:15.655Z,5.81
2019-03-31T06:37:15.655Z,5.88
2019-03-31T06:38:15.623Z,5.89
2019-03-31T06:39:15.616Z,5.95
2019-03-31T06:40:15.609Z,6.00
2019-03-31T06:41:15.595Z,6.04
2019-03-31T06:42:15.606Z,6.11
2019-03-31T06:43:15.571Z,6.09
2019-03-31T06:44:15.565Z,6.16
2019-03-31T06:45:15.547Z,6.14
2019-03-31T06:46:15.544Z,6.21
2019-03-31T06:47:15.533Z,6.30
2019-03-31T06:48:15.534Z,6.44
2019-03-31T06:49:15.511Z,6.46
2019-03-31T06:50:15.499Z,6.51
2019-03-31T06:51:17.103Z,6.59
2019-03-31T06:52:15.473Z,6.58
2019-03-31T06:53:15.484Z,6.76
2019-03-31T06:54:15.458Z,6.86
2019-03-31T06:55:15.448Z,6.81
2019-03-31T06:56:15.435Z,6.91
2019-03-31T06:57:15.424Z,7.01
2019-03-31T06:58:15.438Z,7.07
2019-03-31T06:59:15.400Z,7.15
2019-03-31T07:00:15.431Z,7.17
2019-03-31T07:01:15.402Z,7.24
2019-03-31T07:02:15.368Z,7.26
2019-03-31T07:03:15.362Z,7.26
2019-03-31T07:04:15.366Z,7.31
2019-03-31T07:05:15.343Z,7.31
2019-03-31T07:06:15.326Z,7.32
2019-03-31T07:07:15.319Z,7.42
2019-03-31T07:08:15.309Z,7.50
2019-03-31T07:09:15.318Z,7.55
2019-03-31T07:10:15.291Z,7.66
2019-03-31T07:11:15.279Z,7.59
2019-03-31T07:12:15.265Z,7.59
2019-03-31T07:13:15.257Z,7.74
2019-03-31T07:14:15.273Z,7.77
2019-03-31T07:15:15.231Z,7.82
2019-03-31T07:16:15.252Z,7.93
2019-03-31T07:17:15.211Z,7.93
2019-03-31T07:18:16.050Z,8.00
2019-03-31T07:19:15.204Z,8.00
2019-03-31T07:20:15.200Z,8.07
2019-03-31T07:21:15.177Z,8.07
2019-03-31T07:22:15.156Z,8.12
2019-03-31T07:23:15.149Z,8.10
2019-03-31T07:24:15.139Z,8.20
2019-03-31T07:25:15.146Z,8.26
2019-03-31T07:26:15.116Z,8.32
2019-03-31T07:27:15.109Z,8.42
2019-03-31T07:28:15.099Z,8.53
2019-03-31T07:29:15.087Z,8.54
2019-03-31T07:30:15.105Z,8.54
2019-03-31T07:31:15.095Z,8.62
2019-03-31T07:32:15.054Z,8.62
2019-03-31T07:33:15.053Z,8.76
2019-03-31T07:34:15.035Z,8.81
2019-03-31T07:35:18.805Z,8.84
2019-03-31T07:36:15.062Z,8.87
2019-03-31T07:37:15.004Z,8.91
2019-03-31T07:38:14.989Z,9.01
2019-03-31T07:39:14.987Z,8.99
2019-03-31T07:40:15.082Z,9.10
2019-03-31T07:41:15.289Z,9.12
2019-03-31T07:42:14.974Z,9.21
2019-03-31T07:43:15.124Z,9.23
2019-03-31T07:44:15.477Z,9.30
2019-03-31T07:45:14.915Z,9.34
2019-03-31T07:46:14.924Z,9.42
2019-03-31T07:47:14.899Z,9.48
2019-03-31T07:48:14.895Z,9.52
2019-03-31T07:49:14.898Z,9.57
2019-03-31T07:50:14.862Z,9.56
2019-03-31T07:51:14.871Z,9.56
2019-03-31T07:52:14.841Z,9.56
2019-03-31T07:53:14.833Z,9.57
2019-03-31T07:54:14.828Z,9.75
2019-03-31T07:55:14.827Z,9.79
2019-03-31T07:56:16.231Z,9.83
2019-03-31T07:57:14.792Z,9.88
2019-03-31T07:58:14.804Z,9.88
2019-03-31T07:59:14.781Z,9.97
2019-03-31T08:00:14.759Z,10.04
2019-03-31T08:01:14.828Z,10.12
2019-03-31T08:02:14.736Z,10.15
2019-03-31T08:03:14.729Z,10.18
2019-03-31T08:04:14.717Z,10.18
2019-03-31T08:05:14.707Z,10.19
2019-03-31T08:06:14.695Z,10.17
2019-03-31T08:07:14.702Z,10.18
2019-03-31T08:08:14.674Z,10.25
2019-03-31T08:09:14.665Z,10.25
2019-03-31T08:10:14.651Z,10.24
2019-03-31T08:11:17.083Z,10.37
2019-03-31T08:12:14.630Z,10.36
2019-03-31T08:13:14.619Z,10.46
2019-03-31T08:14:14.612Z,10.46
2019-03-31T08:15:14.598Z,10.55
2019-03-31T08:16:14.608Z,10.55
2019-03-31T08:17:14.577Z,10.55
2019-03-31T08:18:14.567Z,10.56
2019-03-31T08:19:14.557Z,10.65
2019-03-31T08:20:14.545Z,10.60
2019-03-31T08:21:14.539Z,10.62
2019-03-31T08:22:14.543Z,10.73
2019-03-31T08:23:14.516Z,10.70
2019-03-31T08:24:14.507Z,10.78
2019-03-31T08:25:14.495Z,10.74
2019-03-31T08:26:14.533Z,10.74
2019-03-31T08:27:14.495Z,10.80
2019-03-31T08:28:14.462Z,10.83
2019-03-31T08:29:14.456Z,10.88
2019-03-31T08:30:14.441Z,10.94
2019-03-31T08:31:14.431Z,10.92
2019-03-31T08:32:14.437Z,11.14
2019-03-31T08:33:14.409Z,11.14
2019-03-31T08:34:14.400Z,11.20
2019-03-31T08:35:14.386Z,11.24
2019-03-31T08:36:14.377Z,11.20
2019-03-31T08:37:14.405Z,11.29
2019-03-31T08:38:14.359Z,11.34
2019-03-31T08:39:14.349Z,11.31
2019-03-31T08:40:14.340Z,11.56
2019-03-31T08:41:14.324Z,11.52
2019-03-31T08:42:14.314Z,11.64
2019-03-31T08:43:14.331Z,11.67
2019-03-31T08:44:14.293Z,11.70
2019-03-31T08:45:14.283Z,11.65
2019-03-31T08:46:14.278Z,11.62
2019-03-31T08:47:14.260Z,11.68
2019-03-31T08:48:14.274Z,11.59
2019-03-31T08:49:14.248Z,11.50
2019-03-31T08:50:14.229Z,11.54
2019-03-31T08:51:14.218Z,11.57
2019-03-31T08:52:14.207Z,11.57
2019-03-31T08:53:14.233Z,11.57
2019-03-31T08:54:14.187Z,11.61
2019-03-31T08:55:14.179Z,11.54
2019-03-31T08:56:14.194Z,11.53
2019-03-31T08:57:14.175Z,11.64
2019-03-31T08:58:14.146Z,11.64
2019-03-31T08:59:14.152Z,11.50
2019-03-31T09:00:14.126Z,11.49
2019-03-31T09:01:14.121Z,11.49
2019-03-31T09:02:14.103Z,11.50
2019-03-31T09:03:14.092Z,11.43
2019-03-31T09:04:14.104Z,11.44
2019-03-31T09:05:14.071Z,11.27
2019-03-31T09:06:14.059Z,11.39
2019-03-31T09:07:14.055Z,11.28
2019-03-31T09:08:14.041Z,11.35
2019-03-31T09:09:14.059Z,11.24
2019-03-31T09:10:14.023Z,11.29
2019-03-31T09:11:14.011Z,11.27
2019-03-31T09:12:14.008Z,11.28
2019-03-31T09:13:13.988Z,11.17
2019-03-31T09:14:14.004Z,11.21
2019-03-31T09:15:13.972Z,11.14
2019-03-31T09:16:13.962Z,11.13
2019-03-31T09:17:13.972Z,11.09
2019-03-31T09:18:13.935Z,10.99
2019-03-31T09:19:13.927Z,11.03
2019-03-31T09:20:13.931Z,10.95
2019-03-31T09:21:13.904Z,10.86
2019-03-31T09:22:13.896Z,10.91
2019-03-31T09:23:13.882Z,10.95
2019-03-31T09:24:13.877Z,10.96
2019-03-31T09:25:13.885Z,10.86
2019-03-31T09:26:13.848Z,10.88
2019-03-31T09:27:13.841Z,10.86
2019-03-31T09:28:13.831Z,10.80
2019-03-31T09:29:13.908Z,10.80
2019-03-31T09:30:13.832Z,10.83
2019-03-31T09:31:13.798Z,10.80
2019-03-31T09:32:13.788Z,10.80
2019-03-31T09:33:13.777Z,10.84
2019-03-31T09:34:13.771Z,10.86
2019-03-31T09:35:13.763Z,10.92
2019-03-31T09:36:16.488Z,10.89
2019-03-31T09:37:13.761Z,10.95
2019-03-31T09:38:13.727Z,10.94
2019-03-31T09:39:13.712Z,10.92
2019-03-31T09:40:13.706Z,10.92
2019-03-31T09:41:13.709Z,10.92
2019-03-31T09:42:13.686Z,10.99
2019-03-31T09:43:13.678Z,10.92
2019-03-31T09:44:13.665Z,10.91
2019-03-31T09:45:13.652Z,10.95
2019-03-31T09:46:13.660Z,10.94
2019-03-31T09:47:13.630Z,11.07
2019-03-31T09:48:13.617Z,10.92
2019-03-31T09:49:13.612Z,10.95
2019-03-31T09:50:17.013Z,10.95
2019-03-31T09:51:13.615Z,10.92
2019-03-31T09:52:13.577Z,10.89
2019-03-31T09:53:13.567Z,11.01
2019-03-31T09:54:13.556Z,10.88
2019-03-31T09:55:13.548Z,10.95
2019-03-31T09:56:15.189Z,10.94
2019-03-31T09:57:13.542Z,10.80
2019-03-31T09:58:13.534Z,10.94
2019-03-31T09:59:13.502Z,10.96
2019-03-31T10:00:13.495Z,10.81
2019-03-31T10:01:13.483Z,10.88
2019-03-31T10:02:13.498Z,10.83
2019-03-31T10:03:13.464Z,10.84
2019-03-31T10:04:13.476Z,10.73
2019-03-31T10:05:13.446Z,10.74
2019-03-31T10:06:13.440Z,10.65
2019-03-31T10:07:13.503Z,10.62
2019-03-31T10:08:13.414Z,10.70
2019-03-31T10:09:13.400Z,10.58
2019-03-31T10:10:13.387Z,10.51
2019-03-31T10:11:13.382Z,10.60
2019-03-31T10:12:13.366Z,10.58
2019-03-31T10:13:13.374Z,10.55
2019-03-31T10:14:13.348Z,10.59
2019-03-31T10:15:13.339Z,10.62
2019-03-31T10:16:13.346Z,10.56
2019-03-31T10:17:13.311Z,10.65
2019-03-31T10:18:13.323Z,10.58
2019-03-31T10:19:13.292Z,10.65
2019-03-31T10:20:13.287Z,10.62
2019-03-31T10:21:13.270Z,10.53
2019-03-31T10:22:13.259Z,10.55
2019-03-31T10:23:13.275Z,10.59
2019-03-31T10:24:13.239Z,10.56
2019-03-31T10:25:13.545Z,10.63
2019-03-31T10:26:15.988Z,10.62
2019-03-31T10:27:13.207Z,10.53
2019-03-31T10:28:13.248Z,10.53
2019-03-31T10:29:13.195Z,10.46
2019-03-31T10:30:13.180Z,10.56
2019-03-31T10:31:13.185Z,10.56
2019-03-31T10:32:13.157Z,10.47
2019-03-31T10:33:13.146Z,10.53
2019-03-31T10:34:13.157Z,10.46
2019-03-31T10:35:13.140Z,10.58
2019-03-31T10:36:13.113Z,10.60
2019-03-31T10:37:13.126Z,10.60
2019-03-31T10:38:13.106Z,10.53
2019-03-31T10:39:13.105Z,10.59
2019-03-31T10:40:13.072Z,10.58
2019-03-31T10:41:13.067Z,10.56
2019-03-31T10:42:13.048Z,10.56
2019-03-31T10:43:13.038Z,10.68
2019-03-31T10:44:13.049Z,10.70
2019-03-31T10:45:13.021Z,10.77
2019-03-31T10:46:13.009Z,10.96
2019-03-31T10:47:12.999Z,10.94
2019-03-31T10:48:20.437Z,11.02
2019-03-31T10:49:14.039Z,11.13
2019-03-31T10:50:12.965Z,10.99
2019-03-31T10:51:12.958Z,11.03
2019-03-31T10:52:12.998Z,11.07
2019-03-31T10:53:12.936Z,11.25
2019-03-31T10:54:12.966Z,11.29
2019-03-31T10:55:12.918Z,11.38
2019-03-31T10:56:12.914Z,11.43
2019-03-31T10:57:12.950Z,11.53
2019-03-31T10:58:12.882Z,11.61
2019-03-31T10:59:12.870Z,11.71
2019-03-31T11:00:12.879Z,11.75
2019-03-31T11:01:12.874Z,11.72
2019-03-31T11:02:12.843Z,11.70
2019-03-31T11:03:12.828Z,11.71
2019-03-31T11:04:12.819Z,11.68
2019-03-31T11:05:12.832Z,11.77
2019-03-31T11:06:12.804Z,11.82
2019-03-31T11:07:12.791Z,11.86
2019-03-31T11:08:12.833Z,12.05
2019-03-31T11:09:12.765Z,12.09
2019-03-31T11:10:12.774Z,12.11
2019-03-31T11:11:12.788Z,12.27
2019-03-31T11:12:12.731Z,12.38
2019-03-31T11:13:12.722Z,12.48
2019-03-31T11:14:12.712Z,12.44
2019-03-31T11:15:12.877Z,12.59
2019-03-31T11:16:12.691Z,12.64
2019-03-31T11:17:12.687Z,12.69
2019-03-31T11:18:12.680Z,12.71
2019-03-31T11:19:12.658Z,12.78
2019-03-31T11:20:12.651Z,12.85
2019-03-31T11:21:12.662Z,12.95
2019-03-31T11:22:12.635Z,12.93
2019-03-31T11:23:12.619Z,13.02
2019-03-31T11:24:12.606Z,12.97
2019-03-31T11:25:20.636Z,13.15
2019-03-31T11:26:13.605Z,13.11
2019-03-31T11:27:12.580Z,13.14
2019-03-31T11:28:12.565Z,13.04
2019-03-31T11:29:12.558Z,12.92
2019-03-31T11:30:12.547Z,12.95
2019-03-31T11:31:12.595Z,12.99
2019-03-31T11:32:12.526Z,13.09
2019-03-31T11:33:12.512Z,13.07
2019-03-31T11:34:12.500Z,13.12
2019-03-31T11:35:12.492Z,13.24
2019-03-31T11:36:12.481Z,13.24
2019-03-31T11:37:13.963Z,13.25
2019-03-31T11:38:12.458Z,13.38
2019-03-31T11:39:12.452Z,13.27
2019-03-31T11:40:12.443Z,13.18
2019-03-31T11:41:12.427Z,13.18
2019-03-31T11:42:12.439Z,13.17
2019-03-31T11:43:12.408Z,13.21
2019-03-31T11:44:12.395Z,13.04
2019-03-31T11:45:12.431Z,13.12
2019-03-31T11:46:12.375Z,13.02
2019-03-31T11:47:12.363Z,13.02
2019-03-31T11:48:12.374Z,12.95
2019-03-31T11:49:12.339Z,12.95
2019-03-31T11:50:12.331Z,12.88
2019-03-31T11:51:12.323Z,12.84
2019-03-31T11:52:12.308Z,12.99
2019-03-31T11:53:12.317Z,13.12
2019-03-31T11:54:12.288Z,13.29
2019-03-31T11:55:12.277Z,13.38
2019-03-31T11:56:12.265Z,13.54
2019-03-31T11:57:12.258Z,13.59
2019-03-31T11:58:12.264Z,13.69
2019-03-31T11:59:12.246Z,13.79
2019-03-31T12:00:12.224Z,13.76
2019-03-31T12:01:12.216Z,13.91
2019-03-31T12:02:26.116Z,13.95
2019-03-31T12:03:13.222Z,13.95
2019-03-31T12:04:12.180Z,14.13
2019-03-31T12:05:12.177Z,14.10
2019-03-31T12:06:12.164Z,14.16
2019-03-31T12:07:12.153Z,14.14
2019-03-31T12:08:12.638Z,14.25
2019-03-31T12:09:12.302Z,14.04
2019-03-31T12:10:12.127Z,14.10
2019-03-31T12:12:13.136Z,13.92
2019-03-31T12:13:12.087Z,13.77
2019-03-31T12:14:12.094Z,13.79
2019-03-31T12:15:12.063Z,13.87
2019-03-31T12:16:12.053Z,13.80
2019-03-31T12:17:12.046Z,13.96
2019-03-31T12:18:12.029Z,13.98
2019-03-31T12:19:12.044Z,14.06
2019-03-31T12:20:12.008Z,14.13
2019-03-31T12:21:11.997Z,14.06
2019-03-31T12:22:12.012Z,14.10
2019-03-31T12:23:11.986Z,14.17
2019-03-31T12:24:11.968Z,14.32
2019-03-31T12:25:11.976Z,14.38
2019-03-31T12:26:11.943Z,14.38
2019-03-31T12:27:21.925Z,14.37
2019-03-31T12:28:11.921Z,14.49
2019-03-31T12:29:11.917Z,14.49
2019-03-31T12:30:11.925Z,14.56
2019-03-31T12:31:11.891Z,14.61
2019-03-31T12:32:11.879Z,14.60
2019-03-31T12:33:11.904Z,14.37
2019-03-31T12:34:11.864Z,14.34
2019-03-31T12:35:11.915Z,14.25
2019-03-31T12:36:11.836Z,14.43
2019-03-31T12:37:11.825Z,14.49
2019-03-31T12:38:11.815Z,14.52
2019-03-31T12:39:11.812Z,14.60
2019-03-31T12:40:15.092Z,14.62
2019-03-31T12:41:11.813Z,14.56
2019-03-31T12:42:11.770Z,14.57
2019-03-31T12:43:11.769Z,14.61
2019-03-31T12:44:11.752Z,14.57
2019-03-31T12:45:11.746Z,14.46
2019-03-31T12:46:11.753Z,14.31
2019-03-31T12:47:11.747Z,14.29
2019-03-31T12:48:11.706Z,14.29
2019-03-31T12:49:11.707Z,14.43
2019-03-31T12:50:11.689Z,14.39
2019-03-31T12:51:11.700Z,14.52
2019-03-31T12:52:11.669Z,14.53
2019-03-31T12:53:11.655Z,14.61
2019-03-31T12:54:11.641Z,14.68
2019-03-31T12:55:11.639Z,14.64
2019-03-31T12:56:11.621Z,14.60
2019-03-31T12:57:11.634Z,14.65
2019-03-31T12:58:11.600Z,14.69
2019-03-31T12:59:11.592Z,14.68
2019-03-31T13:00:11.591Z,14.67
2019-03-31T13:01:11.567Z,14.60
2019-03-31T13:02:11.578Z,14.54
2019-03-31T13:03:11.545Z,14.62
2019-03-31T13:04:11.545Z,14.60
2019-03-31T13:05:11.526Z,14.62
2019-03-31T13:06:11.513Z,14.69
2019-03-31T13:07:14.739Z,14.80
2019-03-31T13:08:11.503Z,14.94
2019-03-31T13:09:11.491Z,14.95